createdAt,value
2023-05-12T00:01:21.718Z,94.90
2023-05-12T00:03:54.001Z,95.10
2023-05-12T00:06:24.721Z,95.00
2023-05-12T00:08:55.710Z,94.90
2023-05-12T00:11:26.420Z,95.20
2023-05-12T00:13:58.490Z,95.00
2023-05-12T00:16:28.735Z,95.20
2023-05-12T00:18:59.404Z,95.20
2023-05-12T00:21:29.685Z,95.30
2023-05-12T00:24:00.491Z,95.40
2023-05-12T00:26:31.184Z,95.20
2023-05-12T00:29:03.401Z,95.30
2023-05-12T00:31:33.776Z,95.40
2023-05-12T00:34:04.321Z,95.50
2023-05-12T00:36:34.675Z,95.30
2023-05-12T00:39:05.386Z,95.30
2023-05-12T00:41:35.657Z,95.60
2023-05-12T00:44:07.823Z,95.90
2023-05-12T00:46:39.302Z,95.50
2023-05-12T00:49:10.032Z,95.70
2023-05-12T00:51:41.801Z,95.70
2023-05-12T00:54:12.679Z,96.00
2023-05-12T00:56:43.466Z,96.00
2023-05-12T00:59:15.722Z,96.20
2023-05-12T01:01:46.490Z,96.20
2023-05-12T01:04:17.495Z,96.10
2023-05-12T01:06:56.145Z,96.40
2023-05-12T01:09:27.014Z,96.60
2023-05-12T01:11:58.564Z,96.70
2023-05-12T01:14:31.204Z,96.90
2023-05-12T01:17:04.803Z,97.00
2023-05-12T01:19:43.282Z,96.80
2023-05-12T01:22:14.658Z,97.50
2023-05-12T01:24:51.281Z,97.80
2023-05-12T01:27:27.530Z,97.80
2023-05-12T01:30:03.149Z,98.40
2023-05-12T01:32:37.732Z,98.30
2023-05-12T01:35:10.323Z,98.30
2023-05-12T01:37:43.690Z,98.20
2023-05-12T01:40:14.931Z,98.70
2023-05-12T01:42:47.228Z,98.10
2023-05-12T01:45:18.687Z,98.40
2023-05-12T01:47:49.509Z,98.60
2023-05-12T01:50:21.267Z,98.60
2023-05-12T01:52:51.976Z,98.80
2023-05-12T01:55:24.162Z,99.10
2023-05-12T01:57:59.968Z,99.60
2023-05-12T02:00:30.603Z,99.60
2023-05-12T02:03:03.247Z,99.70
2023-05-12T02:05:33.897Z,99.70
2023-05-12T02:08:05.803Z,99.60
2023-05-12T02:10:37.092Z,99.90
2023-05-12T02:13:09.292Z,99.90
2023-05-12T02:15:40.225Z,99.80
2023-05-12T02:18:12.623Z,99.90
2023-05-12T02:20:43.711Z,99.90
2023-05-12T02:23:15.452Z,99.90
2023-05-12T02:25:46.920Z,99.90
2023-05-12T02:28:18.679Z,99.90
2023-05-12T02:30:50.721Z,99.90
2023-05-12T02:33:22.254Z,99.90
2023-05-12T02:35:54.637Z,99.90
2023-05-12T02:38:25.530Z,99.90
2023-05-12T02:40:56.326Z,99.90
2023-05-12T02:43:28.844Z,99.90
2023-05-12T02:45:59.536Z,99.90
2023-05-12T02:48:30.799Z,99.90
2023-05-12T02:51:02.506Z,99.90
2023-05-12T02:53:33.473Z,99.90
2023-05-12T02:56:04.492Z,99.90
2023-05-12T02:58:36.737Z,99.90
2023-05-12T03:01:11.314Z,99.90
2023-05-12T03:03:43.392Z,99.90
2023-05-12T03:06:43.414Z,99.90
2023-05-12T03:09:14.634Z,99.90
2023-05-12T03:11:45.485Z,99.90
2023-05-12T03:14:17.578Z,99.90
2023-05-12T03:16:49.332Z,99.90
2023-05-12T03:19:19.925Z,99.90
2023-05-12T03:21:50.531Z,99.90
2023-05-12T03:24:20.922Z,99.90
2023-05-12T03:26:51.723Z,99.90
2023-05-12T03:29:24.755Z,99.90
2023-05-12T03:31:55.455Z,99.90
2023-05-12T03:34:25.780Z,99.90
2023-05-12T03:36:56.676Z,99.90
2023-05-12T03:39:28.103Z,99.90
2023-05-12T03:41:59.152Z,99.90
2023-05-12T03:44:31.002Z,99.90
2023-05-12T03:47:01.971Z,99.90
2023-05-12T03:49:32.319Z,99.90
2023-05-12T03:52:03.245Z,99.90
2023-05-12T03:54:34.437Z,99.90
2023-05-12T03:57:06.903Z,99.90
2023-05-12T03:59:38.835Z,99.90
2023-05-12T04:02:11.897Z,99.90
2023-05-12T04:04:43.278Z,99.90
2023-05-12T04:07:14.160Z,99.90
2023-05-12T04:09:45.128Z,99.90
2023-05-12T04:12:15.760Z,99.90
2023-05-12T04:14:48.353Z,99.90
2023-05-12T04:17:20.904Z,99.90
2023-05-12T04:19:52.767Z,99.90
2023-05-12T04:22:25.764Z,99.90
2023-05-12T04:24:59.004Z,99.90
2023-05-12T04:27:29.893Z,99.90
2023-05-12T04:30:01.904Z,99.90
2023-05-12T04:32:37.577Z,99.90
2023-05-12T04:35:11.054Z,99.90
2023-05-12T04:37:43.030Z,99.90
2023-05-12T04:40:15.453Z,99.90
2023-05-12T04:42:46.757Z,99.90
2023-05-12T04:45:20.531Z,99.90
2023-05-12T04:47:52.362Z,99.90
2023-05-12T04:50:24.494Z,99.90
2023-05-12T04:52:55.921Z,99.90
2023-05-12T04:55:26.796Z,99.90
2023-05-12T04:57:57.568Z,99.90
2023-05-12T05:00:30.073Z,99.90
2023-05-12T05:03:03.961Z,99.90
2023-05-12T05:05:36.232Z,99.90
2023-05-12T05:08:09.839Z,99.90
2023-05-12T05:10:40.485Z,99.90
2023-05-12T05:13:12.931Z,99.90
2023-05-12T05:15:54.012Z,99.90
2023-05-12T05:18:30.497Z,99.90
2023-05-12T05:21:01.038Z,99.90
2023-05-12T05:23:32.183Z,99.90
2023-05-12T05:26:04.887Z,99.90
2023-05-12T05:28:35.805Z,99.90
2023-05-12T05:31:08.400Z,99.90
2023-05-12T05:33:39.085Z,99.90
2023-05-12T05:36:10.387Z,99.90
2023-05-12T05:38:41.530Z,99.90
2023-05-12T05:41:12.804Z,99.90
2023-05-12T05:43:43.794Z,99.90
2023-05-12T05:46:16.925Z,99.90
2023-05-12T05:48:49.843Z,99.90
2023-05-12T05:51:21.010Z,99.90
2023-05-12T05:53:54.061Z,99.90
2023-05-12T05:56:24.873Z,99.90
2023-05-12T05:58:57.125Z,99.90
2023-05-12T06:01:29.199Z,99.90
2023-05-12T06:04:00.422Z,99.20
2023-05-12T06:06:33.396Z,99.90
2023-05-12T06:09:04.406Z,99.20
2023-05-12T06:11:39.294Z,99.00
2023-05-12T06:14:11.645Z,99.10
2023-05-12T06:16:43.535Z,99.60
2023-05-12T06:19:14.455Z,99.10
2023-05-12T06:21:44.916Z,99.40
2023-05-12T06:24:16.757Z,99.70
2023-05-12T06:26:47.085Z,99.90
2023-05-12T06:29:17.772Z,99.90
2023-05-12T06:31:49.922Z,99.30
2023-05-12T06:34:20.388Z,98.90
2023-05-12T06:36:50.687Z,98.80
2023-05-12T06:39:21.423Z,97.40
2023-05-12T06:41:52.211Z,98.80
2023-05-12T06:44:25.825Z,98.50
2023-05-12T06:46:57.951Z,99.00
2023-05-12T06:49:28.693Z,98.40
2023-05-12T06:51:59.077Z,97.70
2023-05-12T06:54:29.694Z,97.50
2023-05-12T06:57:01.925Z,97.10
2023-05-12T06:59:32.578Z,97.60
2023-05-12T07:02:04.301Z,98.50
2023-05-12T07:04:36.138Z,97.20
2023-05-12T07:07:06.662Z,97.20
2023-05-12T07:09:37.279Z,96.50
2023-05-12T07:12:09.466Z,98.40
2023-05-12T07:14:40.202Z,97.10
2023-05-12T07:17:12.095Z,97.10
2023-05-12T07:19:43.693Z,97.50
2023-05-12T07:22:14.565Z,97.30
2023-05-12T07:24:45.474Z,97.30
2023-05-12T07:27:16.003Z,96.90
2023-05-12T07:29:46.687Z,96.50
2023-05-12T07:32:18.474Z,95.90
2023-05-12T07:34:49.094Z,97.20
2023-05-12T07:37:19.419Z,96.50
2023-05-12T07:39:49.931Z,97.50
2023-05-12T07:42:20.235Z,97.20
2023-05-12T07:44:50.954Z,95.80
2023-05-12T07:47:22.599Z,95.30
2023-05-12T07:49:53.178Z,96.00
2023-05-12T07:52:24.297Z,94.90
2023-05-12T07:54:54.877Z,95.70
2023-05-12T07:57:25.253Z,95.80
2023-05-12T07:59:56.159Z,95.20
2023-05-12T08:02:27.788Z,95.60
2023-05-12T08:04:58.581Z,94.40
2023-05-12T08:07:29.006Z,95.20
2023-05-12T08:09:59.701Z,95.00
2023-05-12T08:12:30.254Z,95.40
2023-05-12T08:15:01.217Z,95.60
2023-05-12T08:17:33.642Z,94.60
2023-05-12T08:20:05.319Z,95.70
2023-05-12T08:22:36.194Z,95.60
2023-05-12T08:25:09.769Z,95.10
2023-05-12T08:27:42.180Z,94.60
2023-05-12T08:30:14.134Z,94.10
2023-05-12T08:32:46.423Z,93.70
2023-05-12T08:35:17.043Z,95.10
2023-05-12T08:37:47.322Z,93.80
2023-05-12T08:40:23.678Z,95.30
2023-05-12T08:43:08.862Z,94.80
2023-05-12T08:45:40.256Z,93.40
2023-05-12T08:48:13.754Z,93.30
2023-05-12T08:50:45.864Z,95.10
2023-05-12T08:53:20.175Z,94.70
2023-05-12T08:57:08.184Z,93.50
2023-05-12T08:58:43.914Z,93.40
2023-05-12T09:01:18.631Z,94.00
2023-05-12T09:04:09.261Z,94.00
2023-05-12T09:06:40.035Z,92.80
2023-05-12T09:09:10.756Z,94.30
2023-05-12T09:11:43.564Z,94.30
2023-05-12T09:14:20.284Z,93.60
2023-05-12T09:16:55.047Z,93.60
2023-05-12T09:19:26.975Z,92.80
2023-05-12T09:21:57.614Z,93.90
2023-05-12T09:24:36.450Z,92.60
2023-05-12T09:27:08.302Z,92.50
2023-05-12T09:29:59.236Z,93.60
2023-05-12T09:32:35.598Z,92.10
2023-05-12T09:35:12.242Z,92.30
2023-05-12T09:37:43.816Z,91.70
2023-05-12T09:40:17.235Z,92.10
2023-05-12T09:42:50.723Z,92.60
2023-05-12T09:45:23.803Z,92.30
2023-05-12T09:47:54.999Z,92.30
2023-05-12T09:50:30.656Z,90.50
2023-05-12T09:53:08.122Z,90.90
2023-05-12T09:55:38.517Z,91.10
2023-05-12T09:58:11.798Z,91.10
2023-05-12T10:00:59.117Z,91.80
2023-05-12T10:03:36.359Z,90.90
2023-05-12T10:06:13.224Z,91.90
2023-05-12T10:08:50.663Z,90.50
2023-05-12T10:11:22.522Z,90.80
2023-05-12T10:13:54.557Z,91.40
2023-05-12T10:16:25.451Z,89.90
2023-05-12T10:18:56.904Z,88.80
2023-05-12T10:21:28.960Z,89.70
2023-05-12T10:24:00.958Z,88.80
2023-05-12T10:26:33.794Z,87.20
2023-05-12T10:29:04.328Z,90.40
2023-05-12T10:31:36.256Z,88.40
2023-05-12T10:34:07.168Z,90.40
2023-05-12T10:36:49.351Z,89.20
2023-05-12T10:39:20.068Z,88.60
2023-05-12T10:41:51.146Z,88.20
2023-05-12T10:44:29.535Z,85.90
2023-05-12T10:47:00.512Z,87.10
2023-05-12T10:49:37.680Z,87.60
2023-05-12T10:52:11.996Z,86.90
2023-05-12T10:54:45.184Z,88.20
2023-05-12T10:57:18.959Z,86.20
2023-05-12T10:59:51.766Z,84.00
2023-05-12T11:02:29.972Z,85.70
2023-05-12T11:07:37.615Z,84.20
2023-05-12T11:10:10.707Z,84.70
2023-05-12T11:12:44.129Z,78.10
2023-05-12T11:15:17.295Z,80.00
2023-05-12T11:17:48.482Z,78.80
2023-05-12T11:20:24.911Z,79.20
2023-05-12T11:22:56.748Z,78.40
2023-05-12T11:25:29.509Z,79.90
2023-05-12T11:27:59.963Z,79.20
2023-05-12T11:30:30.802Z,80.20
2023-05-12T11:33:04.808Z,80.30
2023-05-12T11:35:35.747Z,74.40
2023-05-12T11:38:17.659Z,74.30
2023-05-12T11:40:49.199Z,74.60
2023-05-12T11:43:22.910Z,74.10
2023-05-12T11:45:55.513Z,74.80
2023-05-12T11:48:36.240Z,73.70
2023-05-12T11:51:06.992Z,71.70
2023-05-12T11:53:42.355Z,70.10
2023-05-12T11:56:20.561Z,71.90
2023-05-12T11:58:58.565Z,71.20
2023-05-12T12:01:29.197Z,73.40
2023-05-12T12:03:59.583Z,72.60
2023-05-12T12:06:30.220Z,73.60
2023-05-12T12:09:02.251Z,76.30
2023-05-12T12:11:34.869Z,72.20
2023-05-12T12:14:05.337Z,72.70
2023-05-12T12:16:36.173Z,72.50
2023-05-12T12:19:07.554Z,68.60
2023-05-12T12:21:38.428Z,69.90
2023-05-12T12:24:10.533Z,66.80
2023-05-12T12:26:41.293Z,65.40
2023-05-12T12:29:11.615Z,68.70
2023-05-12T12:31:42.643Z,66.90
2023-05-12T12:34:12.881Z,63.30
2023-05-12T12:36:43.673Z,65.20
2023-05-12T12:39:16.770Z,65.90
2023-05-12T12:41:49.408Z,66.00
2023-05-12T12:44:19.813Z,68.50
2023-05-12T12:46:50.447Z,68.60
2023-05-12T12:49:20.734Z,69.40
2023-05-12T12:51:51.723Z,69.20
2023-05-12T12:54:27.354Z,72.80
2023-05-12T12:56:58.566Z,69.70
2023-05-12T12:59:29.458Z,66.50
2023-05-12T13:02:01.502Z,66.40
2023-05-12T13:04:32.081Z,68.70
2023-05-12T13:07:02.728Z,68.50
2023-05-12T13:09:34.532Z,67.60
2023-05-12T13:12:06.529Z,66.90
2023-05-12T13:14:36.790Z,67.80
2023-05-12T13:17:08.193Z,66.40
2023-05-12T13:19:38.850Z,65.50
2023-05-12T13:22:09.521Z,64.00
2023-05-12T13:24:41.446Z,62.60
2023-05-12T13:27:12.383Z,64.90
2023-05-12T13:29:47.314Z,65.90
2023-05-12T13:32:18.507Z,66.90
2023-05-12T13:34:48.635Z,67.70
2023-05-12T13:37:19.112Z,67.80
2023-05-12T13:39:50.628Z,65.90
2023-05-12T13:42:22.566Z,67.50
2023-05-12T13:44:53.567Z,66.00
2023-05-12T13:47:24.328Z,63.80
2023-05-12T13:49:56.632Z,65.70
2023-05-12T13:52:27.630Z,63.40
2023-05-12T13:54:59.429Z,64.90
2023-05-12T13:57:30.193Z,67.60
2023-05-12T14:00:00.899Z,68.40
2023-05-12T14:02:31.707Z,70.60
2023-05-12T14:05:02.248Z,67.30
2023-05-12T14:07:33.230Z,64.80
2023-05-12T14:10:05.559Z,66.90
2023-05-12T14:12:37.134Z,68.20
2023-05-12T14:15:23.992Z,66.00
2023-05-12T14:18:00.058Z,65.00
2023-05-12T14:20:30.452Z,66.10
2023-05-12T14:23:01.825Z,68.00
2023-05-12T14:25:33.609Z,67.20
2023-05-12T14:28:04.378Z,65.90
2023-05-12T14:30:35.803Z,66.50
2023-05-12T14:33:06.691Z,66.70
2023-05-12T14:35:36.990Z,67.20
2023-05-12T14:38:07.969Z,69.40
2023-05-12T14:40:40.424Z,68.00
2023-05-12T14:43:10.840Z,67.50
2023-05-12T14:45:41.135Z,66.70
2023-05-12T14:48:12.076Z,66.70
2023-05-12T14:50:44.606Z,68.40
2023-05-12T14:53:15.776Z,67.70
2023-05-12T14:55:47.561Z,68.10
2023-05-12T14:58:18.959Z,65.80
2023-05-12T15:00:49.498Z,68.10
2023-05-12T15:03:21.335Z,68.50
2023-05-12T15:08:25.292Z,69.20
2023-05-12T15:10:57.092Z,70.90
2023-05-12T15:13:27.802Z,71.50
2023-05-12T15:15:58.238Z,70.60
2023-05-12T15:18:28.790Z,71.40
2023-05-12T15:20:59.301Z,71.50
2023-05-12T15:23:29.882Z,71.00
2023-05-12T15:26:15.549Z,71.80
2023-05-12T15:28:57.085Z,72.60
2023-05-12T15:31:30.306Z,74.00
2023-05-12T15:34:01.000Z,75.00
2023-05-12T15:36:32.482Z,75.20
2023-05-12T15:39:05.205Z,74.60
2023-05-12T15:41:36.819Z,73.30
2023-05-12T15:44:07.715Z,72.30
2023-05-12T15:46:37.952Z,71.10
2023-05-12T15:49:08.815Z,73.30
2023-05-12T15:51:39.454Z,71.30
2023-05-12T15:54:10.103Z,70.30
2023-05-12T15:56:42.048Z,70.50
2023-05-12T15:59:12.760Z,73.40
2023-05-12T16:01:43.141Z,71.40
2023-05-12T16:04:13.996Z,73.00
2023-05-12T16:06:44.355Z,75.50
2023-05-12T16:09:15.121Z,73.10
2023-05-12T16:11:46.809Z,71.80
2023-05-12T16:14:18.836Z,71.50
2023-05-12T16:16:49.573Z,72.20
2023-05-12T16:19:20.455Z,72.40
2023-05-12T16:21:50.758Z,72.10
2023-05-12T16:24:21.998Z,71.50
2023-05-12T16:26:53.537Z,72.80
2023-05-12T16:29:24.823Z,68.60
2023-05-12T16:31:55.110Z,67.30
2023-05-12T16:34:26.196Z,66.50
2023-05-12T16:36:56.443Z,66.30
2023-05-12T16:39:27.179Z,64.60
2023-05-12T16:42:00.510Z,67.70
2023-05-12T16:44:31.104Z,66.30
2023-05-12T16:47:01.316Z,65.70
2023-05-12T16:49:31.916Z,64.50
2023-05-12T16:52:02.188Z,64.30
2023-05-12T16:54:34.282Z,63.00
2023-05-12T16:57:06.538Z,64.10
2023-05-12T16:59:39.720Z,64.00
2023-05-12T17:02:11.018Z,64.00
2023-05-12T17:04:41.821Z,63.70
2023-05-12T17:07:12.337Z,63.20
2023-05-12T17:09:45.998Z,63.10
2023-05-12T17:12:17.854Z,63.70
2023-05-12T17:14:56.101Z,64.40
2023-05-12T17:17:34.162Z,64.10
2023-05-12T17:20:06.193Z,63.00
2023-05-12T17:22:42.435Z,62.80
2023-05-12T17:25:13.695Z,63.90
2023-05-12T17:27:46.477Z,62.90
2023-05-12T17:30:18.524Z,62.00
2023-05-12T17:32:51.495Z,63.80
2023-05-12T17:35:22.717Z,63.20
2023-05-12T17:37:56.222Z,63.30
2023-05-12T17:40:29.616Z,64.10
2023-05-12T17:43:01.462Z,63.40
2023-05-12T17:45:32.654Z,64.10
2023-05-12T17:48:03.282Z,64.60
2023-05-12T17:50:36.693Z,65.00
2023-05-12T17:53:07.388Z,65.10
2023-05-12T17:55:40.962Z,66.30
2023-05-12T17:58:13.811Z,67.80
2023-05-12T18:00:44.775Z,68.70
2023-05-12T18:03:15.311Z,69.70
2023-05-12T18:05:45.946Z,70.60
2023-05-12T18:08:18.709Z,70.50
2023-05-12T18:10:49.861Z,71.80
2023-05-12T18:13:21.956Z,72.20
2023-05-12T18:15:52.781Z,72.70
2023-05-12T18:18:26.544Z,72.60
2023-05-12T18:20:57.464Z,74.00
2023-05-12T18:23:29.151Z,73.80
2023-05-12T18:26:02.568Z,74.00
2023-05-12T18:28:34.279Z,75.40
2023-05-12T18:31:15.103Z,74.90
2023-05-12T18:33:52.125Z,76.10
2023-05-12T18:36:24.642Z,76.20
2023-05-12T18:38:55.127Z,77.00
2023-05-12T18:41:26.105Z,76.70
2023-05-12T18:43:58.134Z,78.50
2023-05-12T18:46:29.760Z,77.80
2023-05-12T18:49:00.147Z,78.10
2023-05-12T18:51:31.512Z,77.60
2023-05-12T18:54:04.220Z,77.70
2023-05-12T18:56:35.299Z,78.00
2023-05-12T18:59:07.427Z,79.00
2023-05-12T19:01:38.241Z,78.60
2023-05-12T19:04:08.756Z,78.90
2023-05-12T19:06:39.594Z,79.40
2023-05-12T19:09:10.325Z,80.10
2023-05-12T19:11:42.304Z,80.00
2023-05-12T19:14:16.044Z,81.30
2023-05-12T19:16:48.602Z,80.30
2023-05-12T19:19:20.198Z,81.40
2023-05-12T19:21:54.089Z,81.80
2023-05-12T19:24:27.268Z,82.00
2023-05-12T19:27:00.641Z,82.60
2023-05-12T19:29:33.007Z,82.60
2023-05-12T19:32:03.849Z,82.00
2023-05-12T19:34:35.165Z,82.80
2023-05-12T19:37:12.204Z,83.10
2023-05-12T19:39:42.496Z,82.70
2023-05-12T19:42:13.355Z,83.60
2023-05-12T19:44:45.500Z,84.00
2023-05-12T19:47:16.682Z,84.80
2023-05-12T19:49:47.449Z,84.90
2023-05-12T19:52:19.109Z,84.80
2023-05-12T19:54:49.852Z,84.80
2023-05-12T19:57:21.037Z,84.50
2023-05-12T19:59:53.556Z,84.90
2023-05-12T20:02:28.517Z,85.50
2023-05-12T20:05:01.398Z,85.70
2023-05-12T20:07:32.166Z,85.20
2023-05-12T20:10:02.660Z,85.10
2023-05-12T20:12:33.354Z,85.30
2023-05-12T20:15:06.937Z,85.20
2023-05-12T20:17:38.308Z,85.30
2023-05-12T20:20:12.222Z,85.20
2023-05-12T20:22:43.569Z,85.80
2023-05-12T20:25:16.319Z,86.00
2023-05-12T20:27:48.320Z,86.30
2023-05-12T20:30:23.498Z,86.80
2023-05-12T20:32:55.157Z,86.50
2023-05-12T20:35:26.203Z,86.60
2023-05-12T20:37:57.807Z,87.00
2023-05-12T20:40:29.253Z,87.30
2023-05-12T20:43:00.695Z,87.70
2023-05-12T20:45:32.966Z,87.60
2023-05-12T20:48:04.613Z,87.40
2023-05-12T20:50:35.076Z,88.20
2023-05-12T20:53:06.317Z,87.20
2023-05-12T20:55:37.026Z,87.70
2023-05-12T20:58:08.895Z,88.10
2023-05-12T21:00:43.731Z,88.20
2023-05-12T21:03:19.259Z,88.40
2023-05-12T21:05:50.249Z,88.60
2023-05-12T21:08:21.264Z,88.20
2023-05-12T21:10:52.747Z,88.10
2023-05-12T21:13:24.928Z,88.10
2023-05-12T21:15:56.975Z,88.20
2023-05-12T21:18:28.570Z,88.80
2023-05-12T21:21:02.684Z,88.70
2023-05-12T21:23:33.691Z,88.70
2023-05-12T21:26:04.336Z,88.90
2023-05-12T21:28:35.364Z,88.80
2023-05-12T21:31:11.716Z,89.00
2023-05-12T21:33:42.421Z,89.00
2023-05-12T21:36:12.773Z,89.00
2023-05-12T21:38:48.478Z,89.00
2023-05-12T21:41:19.268Z,89.40
2023-05-12T21:43:51.530Z,89.50
2023-05-12T21:46:24.231Z,89.00
2023-05-12T21:48:57.227Z,89.20
2023-05-12T21:51:28.906Z,89.40
2023-05-12T21:53:59.445Z,88.60
2023-05-12T21:56:31.922Z,89.40
2023-05-12T21:59:03.544Z,90.10
2023-05-12T22:01:35.320Z,89.40
2023-05-12T22:04:07.855Z,88.80
2023-05-12T22:06:43.404Z,89.00
2023-05-12T22:09:16.929Z,89.10
2023-05-12T22:11:47.486Z,89.20
2023-05-12T22:14:18.006Z,89.20
2023-05-12T22:16:49.863Z,89.20
2023-05-12T22:19:20.794Z,89.00
2023-05-12T22:21:51.201Z,89.20
2023-05-12T22:24:21.794Z,88.80
2023-05-12T22:26:52.244Z,88.50
2023-05-12T22:29:22.953Z,89.10
2023-05-12T22:31:54.613Z,88.50
2023-05-12T22:34:24.969Z,89.00
2023-05-12T22:36:55.496Z,88.40
2023-05-12T22:39:26.055Z,88.20
2023-05-12T22:41:56.441Z,88.30
2023-05-12T22:44:27.201Z,88.30
2023-05-12T22:46:59.232Z,88.20
2023-05-12T22:49:29.932Z,88.70
2023-05-12T22:52:01.160Z,87.90
2023-05-12T22:54:31.925Z,88.10
2023-05-12T22:57:02.149Z,87.90
2023-05-12T22:59:32.602Z,88.20
2023-05-12T23:02:04.260Z,88.80
2023-05-12T23:04:34.878Z,88.30
2023-05-12T23:07:07.701Z,88.20
2023-05-12T23:09:39.842Z,87.80
2023-05-12T23:12:10.879Z,88.00
2023-05-12T23:14:41.434Z,88.00
2023-05-12T23:17:13.195Z,88.40
2023-05-12T23:19:43.931Z,88.20
2023-05-12T23:22:14.367Z,88.50
2023-05-12T23:24:45.402Z,88.50
2023-05-12T23:27:15.681Z,88.30
2023-05-12T23:29:46.552Z,88.50
2023-05-12T23:32:18.315Z,88.40
2023-05-12T23:34:48.836Z,88.40
2023-05-12T23:37:19.770Z,88.10
2023-05-12T23:39:50.455Z,88.30
2023-05-12T23:42:20.724Z,88.40
2023-05-12T23:44:51.372Z,88.30
2023-05-12T23:47:23.115Z,88.10
2023-05-12T23:49:53.756Z,87.80
2023-05-12T23:52:23.991Z,87.90
2023-05-12T23:54:54.659Z,87.80
2023-05-12T23:57:24.873Z,87.90
2023-05-12T23:59:55.702Z,87.50
